Time;durP1;ratioP1;P1;durP2;ratioP2;P2;SDS_P1;SDS_P2;PMS_P1;PMS_P2;Temp;Humidity;BMP_temperature;BMP_pressure;BME280_temperature;BME280_humidity;BME280_pressure;Samples;Min_cycle;Max_cycle;Signal;HPM_P1;HPM_P2
2021/12/21 00:03:15;;;;;;;14.23;6.22;;;;;;;-0.64;100.00;102700.63;10148504;28;20424;-70
2021/12/21 00:08:13;;;;;;;12.57;5.40;;;;;;;-0.67;100.00;102706.41;10147667;28;20407;-70
2021/12/21 00:18:39;;;;;;;12.40;5.28;;;;;;;-0.83;100.00;102701.31;10149079;28;20480;-70
2021/12/21 00:23:47;;;;;;;16.55;6.00;;;;;;;-0.88;100.00;102704.56;10149950;28;20046;-71
2021/12/21 00:29:01;;;;;;;14.13;6.03;;;;;;;-0.90;100.00;102700.41;10152494;28;20066;-71
2021/12/21 00:33:59;;;;;;;14.52;6.20;;;;;;;-0.94;100.00;102707.19;10149050;28;20047;-71
2021/12/21 00:39:03;;;;;;;15.98;7.13;;;;;;;-0.70;100.00;102709.47;10142019;28;20038;-70
2021/12/21 00:44:00;;;;;;;15.90;6.70;;;;;;;-0.87;100.00;102716.13;10155926;28;20046;-70
2021/12/21 00:49:01;;;;;;;17.23;6.25;;;;;;;-0.94;100.00;102707.19;10156059;28;20157;-70
2021/12/21 00:53:59;;;;;;;14.40;5.97;;;;;;;-1.02;100.00;102707.31;10156434;28;20038;-70
2021/12/21 00:58:55;;;;;;;12.30;6.38;;;;;;;-1.06;100.00;102702.31;10156762;28;20046;-70
2021/12/21 01:03:54;;;;;;;14.52;5.97;;;;;;;-0.82;100.00;102705.63;10155115;28;20407;-70
2021/12/21 01:09:06;;;;;;;13.75;7.00;;;;;;;-0.88;100.00;102707.25;10159832;28;21288;-71
2021/12/21 01:29:33;;;;;;;19.70;7.68;;;;;;;-1.02;100.00;102696.56;10152616;28;20046;-70
2021/12/21 01:34:42;;;;;;;15.52;6.30;;;;;;;-1.11;100.00;102693.19;10155538;28;20078;-71
2021/12/21 01:40:10;;;;;;;14.27;6.18;;;;;;;-1.13;100.00;102690.69;10150965;28;20121;-70
2021/12/21 01:50:22;;;;;;;15.43;7.18;;;;;;;-1.04;100.00;102677.13;10153796;28;20104;-70
2021/12/21 01:55:19;;;;;;;9.90;5.57;;;;;;;-1.09;100.00;102678.56;10147315;28;20137;-70
2021/12/21 02:00:16;;;;;;;21.40;7.78;;;;;;;-1.09;100.00;102681.22;10156074;28;20546;-70
2021/12/21 02:05:13;;;;;;;14.25;6.85;;;;;;;-0.99;100.00;102672.03;10151729;28;20051;-70
2021/12/21 02:10:09;;;;;;;21.17;8.43;;;;;;;-1.06;100.00;102672.78;10152868;28;20448;-70
2021/12/21 02:15:06;;;;;;;16.52;6.82;;;;;;;-1.11;100.00;102671.72;10151997;28;20100;-71
2021/12/21 02:20:55;;;;;;;15.25;7.32;;;;;;;-1.17;100.00;102659.88;10158096;28;20124;-71
2021/12/21 02:30:26;;;;;;;15.52;6.63;;;;;;;-1.19;100.00;102656.53;11157963;23;20049;-69
2021/12/21 02:35:23;;;;;;;16.83;7.05;;;;;;;-1.27;100.00;102651.31;10165754;28;20120;-71
2021/12/21 02:40:19;;;;;;;16.80;7.28;;;;;;;-1.30;100.00;102646.31;10184116;28;20148;-72
2021/12/21 02:45:15;;;;;;;13.90;6.13;;;;;;;-1.35;100.00;102643.38;10186400;28;20542;-72
2021/12/21 02:50:14;;;;;;;16.00;6.95;;;;;;;-1.34;100.00;102645.88;10179329;28;20054;-69
2021/12/21 02:55:11;;;;;;;13.45;7.18;;;;;;;-1.21;100.00;102649.72;10179856;28;20077;-70
2021/12/21 03:00:09;;;;;;;12.60;6.30;;;;;;;-1.32;100.00;102648.38;10175438;28;20062;-68
2021/12/21 03:05:06;;;;;;;15.38;7.70;;;;;;;-1.36;100.00;102636.38;10183424;28;20126;-69
2021/12/21 03:10:09;;;;;;;14.88;7.10;;;;;;;-1.40;100.00;102643.13;10177317;28;20542;-73
2021/12/21 03:15:06;;;;;;;16.73;6.78;;;;;;;-1.45;100.00;102642.88;10171159;28;20101;-73
2021/12/21 03:20:02;;;;;;;15.05;7.45;;;;;;;-1.53;100.00;102641.16;10181303;28;20049;-73
2021/12/21 03:24:59;;;;;;;17.05;8.02;;;;;;;-1.56;100.00;102642.34;10176063;28;20175;-73
2021/12/21 03:29:55;;;;;;;16.27;7.70;;;;;;;-1.60;100.00;102635.72;10187005;28;20053;-72
2021/12/21 03:34:52;;;;;;;13.95;6.65;;;;;;;-1.40;100.00;102640.44;10169611;28;20066;-71
2021/12/21 03:39:52;;;;;;;18.60;6.78;;;;;;;-1.43;100.00;102638.16;10184104;28;20057;-72
2021/12/21 03:44:48;;;;;;;14.90;7.07;;;;;;;-1.59;100.00;102632.00;10183394;28;20092;-72
2021/12/21 03:54:47;;;;;;;13.65;6.68;;;;;;;-1.45;100.00;102632.13;10197502;28;20069;-72
2021/12/21 03:59:45;;;;;;;11.93;6.70;;;;;;;-1.42;100.00;102631.75;10194852;28;20045;-72
2021/12/21 04:04:43;;;;;;;14.95;7.80;;;;;;;-1.39;100.00;102631.34;10184896;28;20134;-72
2021/12/21 04:09:40;;;;;;;13.95;7.13;;;;;;;-1.53;100.00;102628.56;10197866;28;20038;-72
2021/12/21 04:14:37;;;;;;;16.05;8.07;;;;;;;-1.54;100.00;102623.38;10187821;28;20455;-72
2021/12/21 04:19:33;;;;;;;17.40;7.07;;;;;;;-1.58;100.00;102628.31;10194826;28;20130;-73
2021/12/21 04:24:30;;;;;;;18.35;7.00;;;;;;;-1.62;100.00;102632.38;10192488;28;20046;-72
2021/12/21 04:29:26;;;;;;;15.20;7.07;;;;;;;-1.69;100.00;102631.47;10208593;28;20041;-72
2021/12/21 04:34:23;;;;;;;19.65;7.97;;;;;;;-1.74;100.00;102629.38;10196024;28;20045;-72
2021/12/21 04:39:31;;;;;;;15.68;7.53;;;;;;;-1.77;100.00;102629.72;10194302;28;20124;-72
2021/12/21 04:44:27;;;;;;;17.63;7.78;;;;;;;-1.72;100.00;102637.19;10195560;28;20072;-73
2021/12/21 04:49:24;;;;;;;10.93;6.38;;;;;;;-1.75;100.00;102632.22;10190974;28;20050;-71
2021/12/21 04:54:20;;;;;;;14.38;6.65;;;;;;;-1.74;100.00;102634.72;10203728;28;20491;-72
2021/12/21 04:59:20;;;;;;;13.73;6.53;;;;;;;-1.75;100.00;102633.03;10198874;28;20047;-72
2021/12/21 05:04:17;;;;;;;16.17;6.80;;;;;;;-1.73;100.00;102630.19;10188773;28;20070;-71
2021/12/21 05:09:23;;;;;;;16.80;8.15;;;;;;;-1.70;100.00;102635.16;10204564;28;20507;-71
2021/12/21 05:14:20;;;;;;;13.85;7.13;;;;;;;-1.73;100.00;102638.22;10174852;28;20569;-73
2021/12/21 05:19:16;;;;;;;14.82;6.35;;;;;;;-1.77;100.00;102639.63;10171266;28;20101;-70
2021/12/21 05:24:12;;;;;;;12.88;6.78;;;;;;;-1.80;100.00;102635.47;10169254;28;20046;-72
2021/12/21 05:29:09;;;;;;;13.15;7.30;;;;;;;-1.82;100.00;102634.00;10170370;28;20133;-71
2021/12/21 05:34:05;;;;;;;12.98;6.70;;;;;;;-1.88;100.00;102622.19;10177330;28;20038;-72
2021/12/21 05:39:05;;;;;;;13.35;6.97;;;;;;;-1.89;100.00;102625.03;10169436;28;20092;-70
2021/12/21 05:44:02;;;;;;;13.98;6.63;;;;;;;-1.90;100.00;102629.59;10179545;28;20041;-70
2021/12/21 05:49:01;;;;;;;16.08;7.65;;;;;;;-1.92;100.00;102621.72;10177706;28;20047;-71
2021/12/21 05:53:59;;;;;;;18.08;7.50;;;;;;;-1.93;100.00;102636.16;10187821;28;20560;-78
2021/12/21 05:58:55;;;;;;;15.13;7.55;;;;;;;-1.76;100.00;102619.84;10186206;28;20042;-70
2021/12/21 06:03:52;;;;;;;11.77;6.40;;;;;;;-1.73;100.00;102624.81;10183849;28;20092;-69
2021/12/21 06:08:50;;;;;;;16.77;8.20;;;;;;;-1.73;100.00;102628.31;10184149;28;20050;-70
2021/12/21 06:25:12;;;;;;;14.98;7.88;;;;;;;-2.00;100.00;102639.75;10170519;28;20042;-69
2021/12/21 06:29:31;;;;;;;14.60;7.07;;;;;;;-1.94;100.00;102634.47;10008655;28;20054;-70
2021/12/21 06:34:27;;;;;;;13.35;7.03;;;;;;;-1.91;100.00;102631.41;10162138;28;20136;-70
2021/12/21 06:39:24;;;;;;;21.38;8.43;;;;;;;-1.79;100.00;102636.28;9992875;28;20049;-70
2021/12/21 06:44:20;;;;;;;14.93;6.72;;;;;;;-1.85;100.00;102637.06;10171569;28;20069;-70
2021/12/21 06:54:35;;;;;;;19.95;7.47;;;;;;;-1.68;100.00;102632.31;10172487;28;20069;-69
2021/12/21 06:59:32;;;;;;;14.25;7.22;;;;;;;-1.59;100.00;102633.84;10165210;28;20077;-70
2021/12/21 07:04:32;;;;;;;14.27;7.13;;;;;;;-1.66;100.00;102641.81;10166885;28;20069;-69
2021/12/21 07:19:41;;;;;;;19.00;7.28;;;;;;;-1.80;100.00;102645.38;10193981;28;20502;-70
2021/12/21 07:24:37;;;;;;;11.57;7.15;;;;;;;-1.81;100.00;102649.06;10192178;28;20046;-70
2021/12/21 07:29:34;;;;;;;21.88;7.70;;;;;;;-1.83;100.00;102640.34;10169080;28;20097;-70
2021/12/21 07:34:30;;;;;;;11.93;6.38;;;;;;;-1.80;100.00;102650.72;10168930;28;20493;-71
2021/12/21 07:39:27;;;;;;;13.20;6.80;;;;;;;-1.76;100.00;102649.34;10161511;28;20157;-70
2021/12/21 07:44:43;;;;;;;16.40;7.95;;;;;;;-1.85;100.00;102647.78;10165307;28;20128;-70
2021/12/21 07:49:40;;;;;;;19.92;7.40;;;;;;;-1.82;100.00;102652.75;10170748;28;20408;-70
2021/12/21 07:54:37;;;;;;;14.23;9.05;;;;;;;-1.79;100.00;102652.38;10161674;28;20121;-70
2021/12/21 07:59:35;;;;;;;11.98;8.20;;;;;;;-1.81;100.00;102649.06;10206452;28;20050;-70
2021/12/21 08:04:33;;;;;;;18.10;8.93;;;;;;;-1.80;100.00;102650.72;10196839;28;20037;-70
2021/12/21 08:09:37;;;;;;;14.18;7.63;;;;;;;-1.80;100.00;102661.47;10198677;28;20093;-69
2021/12/21 08:14:36;;;;;;;16.73;8.50;;;;;;;-1.80;100.00;102659.59;10185030;28;20084;-69
2021/12/21 08:19:32;;;;;;;15.77;7.75;;;;;;;-1.80;100.00;102661.47;10186422;28;20050;-69
2021/12/21 08:24:33;;;;;;;19.63;8.30;;;;;;;-1.73;100.00;102663.19;10193564;28;20049;-69
2021/12/21 08:29:30;;;;;;;18.65;8.55;;;;;;;-1.58;100.00;102663.19;10181976;28;20129;-70
2021/12/21 08:34:27;;;;;;;19.10;9.43;;;;;;;-1.52;100.00;102659.72;10189415;28;20069;-71
2021/12/21 08:39:24;;;;;;;12.60;8.23;;;;;;;-1.53;100.00;102655.38;10196301;28;20453;-70
2021/12/21 08:44:23;;;;;;;19.33;7.90;;;;;;;-1.46;100.00;102649.25;10175826;28;20442;-69
2021/12/21 08:49:19;;;;;;;21.48;9.35;;;;;;;-1.44;100.00;102657.94;10172328;28;20046;-70
2021/12/21 08:54:18;;;;;;;14.30;8.70;;;;;;;-1.40;100.00;102640.44;10180137;28;20082;-70
2021/12/21 08:59:18;;;;;;;18.60;9.02;;;;;;;-1.19;100.00;102636.94;10175723;28;20080;-71
2021/12/21 09:04:22;;;;;;;12.23;8.50;;;;;;;-0.98;100.00;102633.41;10167679;28;20073;-70
2021/12/21 09:09:19;;;;;;;17.23;8.07;;;;;;;-0.80;100.00;102641.00;10184520;28;20073;-70
2021/12/21 09:14:17;;;;;;;16.70;8.15;;;;;;;-0.47;100.00;102638.53;10201690;28;20046;-70
2021/12/21 09:19:13;;;;;;;12.40;7.25;;;;;;;-0.34;100.00;102641.31;10207446;28;20088;-68
2021/12/21 09:24:15;;;;;;;15.75;8.25;;;;;;;-0.18;100.00;102639.34;10193975;28;20041;-68
2021/12/21 09:29:12;;;;;;;16.98;8.25;;;;;;;-0.05;100.00;102644.75;10202870;28;20053;-69
2021/12/21 09:34:12;;;;;;;20.30;8.25;;;;;;;0.04;100.00;102654.31;10197336;28;20037;-69
2021/12/21 09:39:08;;;;;;;16.85;8.35;;;;;;;0.22;100.00;102650.28;10190143;28;20172;-69
2021/12/21 09:44:05;;;;;;;17.65;9.60;;;;;;;0.28;100.00;102654.84;10192469;28;20092;-68
2021/12/21 09:49:02;;;;;;;13.40;8.00;;;;;;;0.39;100.00;102656.94;10200008;28;20500;-69
2021/12/21 09:53:59;;;;;;;13.95;8.00;;;;;;;0.45;100.00;102649.94;10196580;28;20421;-69
2021/12/21 09:58:57;;;;;;;16.80;8.82;;;;;;;0.52;100.00;102659.69;10198069;28;20057;-69
2021/12/21 10:03:53;;;;;;;21.40;9.25;;;;;;;0.56;100.00;102658.25;10198109;28;20739;-69
2021/12/21 10:08:50;;;;;;;15.35;8.25;;;;;;;0.69;100.00;102667.38;10216577;28;20495;-71
2021/12/21 10:13:49;;;;;;;15.27;8.57;;;;;;;0.79;100.00;102668.66;10196609;28;20133;-69
2021/12/21 10:18:46;;;;;;;18.38;9.25;;;;;;;0.85;100.00;102672.38;10194495;28;20452;-71
2021/12/21 10:23:45;;;;;;;21.77;9.02;;;;;;;1.03;100.00;102669.09;10204555;28;20069;-70
2021/12/21 10:28:47;;;;;;;11.30;7.38;;;;;;;1.34;100.00;102668.47;10214345;28;20786;-69
2021/12/21 10:33:44;;;;;;;18.83;8.48;;;;;;;1.36;100.00;102657.50;10200381;28;20061;-70
2021/12/21 10:38:50;;;;;;;19.58;9.77;;;;;;;1.54;100.00;102665.78;10207097;28;20077;-70
2021/12/21 10:44:02;;;;;;;17.02;8.02;;;;;;;1.61;100.00;102677.38;10200801;28;20065;-70
2021/12/21 10:49:15;;;;;;;18.92;9.23;;;;;;;1.77;100.00;102659.09;10183959;28;20311;-69
2021/12/21 10:54:12;;;;;;;21.40;10.52;;;;;;;1.80;100.00;102648.69;10188240;28;20129;-70
2021/12/21 10:59:11;;;;;;;18.85;8.02;;;;;;;1.62;100.00;102651.22;10197527;28;20100;-69
2021/12/21 11:04:16;;;;;;;19.50;8.82;;;;;;;1.75;100.00;102645.81;10193838;28;20045;-69
2021/12/21 11:09:14;;;;;;;16.90;8.90;;;;;;;2.07;100.00;102643.22;10205010;28;20042;-70
2021/12/21 11:14:17;;;;;;;16.33;8.55;;;;;;;2.36;100.00;102632.91;10198776;28;20076;-69
2021/12/21 11:19:16;;;;;;;16.88;7.80;;;;;;;2.58;100.00;102636.97;10200540;28;20057;-69
2021/12/21 11:24:18;;;;;;;19.55;9.23;;;;;;;2.78;100.00;102627.88;10196480;28;20042;-68
2021/12/21 11:29:18;;;;;;;12.83;6.90;;;;;;;2.87;100.00;102623.88;10190401;28;20462;-69
2021/12/21 11:34:19;;;;;;;20.27;8.23;;;;;;;2.73;100.00;102618.56;10170833;28;20531;-69
2021/12/21 11:39:18;;;;;;;19.27;8.57;;;;;;;2.94;100.00;102611.13;10167984;28;20073;-69
2021/12/21 11:44:26;;;;;;;28.85;9.90;;;;;;;2.84;100.00;102605.41;10171438;28;20111;-69
2021/12/21 11:49:40;;;;;;;20.10;7.43;;;;;;;3.23;100.00;102604.25;10165265;28;20078;-69
2021/12/21 11:55:09;;;;;;;16.48;7.85;;;;;;;3.32;100.00;102604.78;10180028;28;20042;-69
2021/12/21 12:00:08;;;;;;;19.27;7.85;;;;;;;3.53;100.00;102593.53;10163080;28;20062;-69
2021/12/21 12:05:15;;;;;;;23.13;7.75;;;;;;;3.61;100.00;102588.88;10171656;28;20166;-69
2021/12/21 12:10:14;;;;;;;16.50;7.63;;;;;;;4.05;100.00;102586.91;10193313;28;20495;-67
2021/12/21 12:15:11;;;;;;;16.88;7.40;;;;;;;4.36;100.00;102581.28;10179429;28;20057;-70
2021/12/21 12:20:09;;;;;;;16.05;7.00;;;;;;;4.76;100.00;102575.25;10180407;28;20073;-70
2021/12/21 12:25:12;;;;;;;11.35;6.25;;;;;;;5.07;100.00;102570.53;10177823;28;20082;-70
2021/12/21 12:30:16;;;;;;;15.68;6.65;;;;;;;5.45;100.00;102566.50;10168079;28;20476;-70
2021/12/21 12:35:17;;;;;;;13.68;7.05;;;;;;;5.68;100.00;102571.91;10168922;28;20077;-70
2021/12/21 12:40:18;;;;;;;12.68;5.07;;;;;;;5.46;100.00;102565.47;10185180;28;20085;-70
2021/12/21 12:45:19;;;;;;;15.75;5.78;;;;;;;5.43;100.00;102563.22;10196059;28;20046;-70
2021/12/21 12:50:28;;;;;;;12.50;5.32;;;;;;;5.37;100.00;102570.41;10191076;28;20455;-69
2021/12/21 12:55:52;;;;;;;14.60;5.57;;;;;;;5.42;100.00;102583.28;10187729;28;20544;-70
2021/12/21 13:01:19;;;;;;;9.68;5.38;;;;;;;5.50;100.00;102569.34;10182800;28;20046;-69
2021/12/21 13:06:23;;;;;;;13.63;5.68;;;;;;;5.34;100.00;102565.47;10185085;28;20069;-70
2021/12/21 13:11:29;;;;;;;14.68;5.75;;;;;;;4.99;100.00;102570.88;10199251;28;20054;-69
2021/12/21 13:16:31;;;;;;;13.68;5.65;;;;;;;4.92;100.00;102578.31;10193083;28;20050;-70
2021/12/21 13:21:54;;;;;;;9.70;3.72;;;;;;;4.96;100.00;102569.47;10198196;28;20049;-70
2021/12/21 13:26:55;;;;;;;10.30;4.38;;;;;;;4.97;100.00;102573.03;10198788;28;20508;-70
2021/12/21 13:31:54;;;;;;;10.50;4.80;;;;;;;4.67;100.00;102554.97;10191490;28;20086;-70
2021/12/21 13:37:06;;;;;;;10.48;4.07;;;;;;;4.37;100.00;102558.53;10202509;28;20096;-70
2021/12/21 13:42:10;;;;;;;13.13;4.18;;;;;;;4.08;100.00;102551.25;10183861;28;20543;-70
2021/12/21 13:47:24;;;;;;;13.10;4.88;;;;;;;3.64;100.00;102561.38;10175702;28;20066;-70
2021/12/21 13:52:26;;;;;;;18.33;4.05;;;;;;;3.44;100.00;102546.22;10184362;28;20048;-70
2021/12/21 13:57:25;;;;;;;10.60;4.28;;;;;;;3.28;100.00;102552.22;10173698;28;20070;-69
2021/12/21 14:02:33;;;;;;;16.23;3.38;;;;;;;3.22;100.00;102567.44;10172361;28;20046;-70
2021/12/21 14:07:33;;;;;;;14.77;3.47;;;;;;;3.09;100.00;102565.69;10173377;28;20134;-69
2021/12/21 14:12:30;;;;;;;8.65;2.90;;;;;;;3.11;100.00;102552.78;10185634;28;20062;-69
2021/12/21 14:17:30;;;;;;;10.27;4.30;;;;;;;2.95;100.00;102554.19;10062117;28;20091;-69
2021/12/21 14:22:29;;;;;;;9.52;3.60;;;;;;;3.00;100.00;102556.22;10065174;28;20125;-69
2021/12/21 14:27:28;;;;;;;9.55;3.83;;;;;;;2.97;100.00;102556.66;10179528;28;20125;-71
2021/12/21 14:32:42;;;;;;;10.75;3.70;;;;;;;2.79;100.00;102559.31;10204683;28;20068;-70
2021/12/21 14:37:38;;;;;;;11.32;3.83;;;;;;;2.68;100.00;102564.38;10103300;28;20133;-69
2021/12/21 14:42:36;;;;;;;9.43;3.22;;;;;;;2.52;100.00;102564.91;10103335;28;20124;-68
2021/12/21 14:47:34;;;;;;;9.95;4.10;;;;;;;2.39;100.00;102571.25;10178506;28;20385;-70
2021/12/21 14:52:52;;;;;;;7.68;2.38;;;;;;;2.40;100.00;102575.56;10192911;28;20846;-68
2021/12/21 14:57:59;;;;;;;9.75;2.53;;;;;;;2.32;100.00;102575.81;10182470;28;20081;-68
2021/12/21 15:02:59;;;;;;;6.65;2.75;;;;;;;2.20;100.00;102578.38;10182182;28;20038;-70
2021/12/21 15:07:58;;;;;;;10.23;2.67;;;;;;;2.01;100.00;102574.75;10178025;28;20357;-69
2021/12/21 15:12:56;;;;;;;10.73;3.05;;;;;;;1.85;100.00;102580.63;10194426;28;20129;-68
2021/12/21 15:17:53;;;;;;;8.93;3.03;;;;;;;1.76;100.00;102593.53;10183470;28;20050;-71
2021/12/21 15:22:51;;;;;;;8.30;3.40;;;;;;;1.58;100.00;102587.97;10197722;28;20088;-71
2021/12/21 15:27:50;;;;;;;11.75;3.80;;;;;;;1.44;100.00;102576.41;10048778;28;20052;-71
2021/12/21 15:32:48;;;;;;;10.23;3.28;;;;;;;1.34;100.00;102584.91;10075436;28;20046;-71
2021/12/21 15:37:47;;;;;;;12.85;4.70;;;;;;;1.27;100.00;102581.41;10179926;28;20591;-71
2021/12/21 15:42:45;;;;;;;11.85;3.50;;;;;;;1.18;100.00;102571.88;10189691;28;20049;-71
2021/12/21 15:47:42;;;;;;;14.93;4.13;;;;;;;1.05;100.00;102576.25;10178176;28;20452;-71
2021/12/21 15:52:39;;;;;;;15.68;4.05;;;;;;;0.95;100.00;102575.88;10179187;28;20045;-70
2021/12/21 15:57:35;;;;;;;9.82;4.03;;;;;;;0.86;100.00;102571.72;10176124;28;20126;-71
2021/12/21 16:02:32;;;;;;;14.45;4.43;;;;;;;0.82;100.00;102575.84;10186089;28;20073;-71
2021/12/21 16:07:29;;;;;;;12.65;5.20;;;;;;;0.66;100.00;102576.25;10190156;28;20046;-71
2021/12/21 16:12:26;;;;;;;13.65;5.10;;;;;;;0.58;100.00;102571.88;10197617;28;20863;-71
2021/12/21 16:17:22;;;;;;;18.17;6.72;;;;;;;0.44;100.00;102573.72;10193266;28;20057;-70
2021/12/21 16:22:19;;;;;;;13.93;6.25;;;;;;;0.45;100.00;102586.16;10196330;28;20510;-70
2021/12/21 16:27:16;;;;;;;16.70;7.15;;;;;;;0.37;100.00;102583.66;10192911;28;20100;-70
2021/12/21 16:32:13;;;;;;;15.43;7.07;;;;;;;0.28;100.00;102587.56;10184697;28;20104;-67
2021/12/21 16:37:09;;;;;;;21.65;6.68;;;;;;;0.28;100.00;102596.50;10183682;28;20620;-70
2021/12/21 16:42:06;;;;;;;16.58;7.72;;;;;;;0.20;100.00;102594.78;10170803;28;20050;-70
2021/12/21 16:47:04;;;;;;;16.23;7.40;;;;;;;0.15;100.00;102585.69;10177223;28;20128;-70
2021/12/21 16:52:00;;;;;;;17.45;7.97;;;;;;;0.17;100.00;102583.63;10174129;28;20050;-70
2021/12/21 16:56:58;;;;;;;30.20;8.80;;;;;;;0.11;100.00;102579.88;10165040;28;20133;-69
2021/12/21 17:01:55;;;;;;;17.08;8.05;;;;;;;0.08;100.00;102580.28;10173447;28;20092;-70
2021/12/21 17:06:51;;;;;;;19.65;8.15;;;;;;;0.04;100.00;102578.19;10174005;28;20134;-70
2021/12/21 17:11:49;;;;;;;23.42;8.43;;;;;;;0.01;100.00;102582.13;10173506;28;20488;-69
2021/12/21 17:16:45;;;;;;;19.90;8.32;;;;;;;-0.04;100.00;102581.91;10186981;28;20462;-70
2021/12/21 17:21:42;;;;;;;22.20;9.18;;;;;;;-0.07;100.00;102571.53;10173177;28;20046;-70
2021/12/21 17:26:38;;;;;;;21.92;8.63;;;;;;;-0.14;100.00;102567.97;10181020;28;20152;-67
2021/12/21 17:31:35;;;;;;;21.58;10.90;;;;;;;-0.15;100.00;102571.72;10171978;28;20483;-70
2021/12/21 17:36:33;;;;;;;26.00;8.93;;;;;;;-0.18;100.00;102572.13;10182300;28;20054;-70
2021/12/21 17:41:30;;;;;;;18.42;10.27;;;;;;;-0.16;100.00;102573.56;10177186;28;20046;-70
2021/12/21 17:46:26;;;;;;;18.65;9.43;;;;;;;-0.19;100.00;102578.50;10179626;28;20076;-71
2021/12/21 17:51:23;;;;;;;22.85;10.52;;;;;;;-0.23;100.00;102584.31;10181525;28;20080;-70
2021/12/21 17:56:22;;;;;;;25.40;10.02;;;;;;;-0.25;100.00;102591.72;10176494;28;20705;-70
2021/12/21 18:01:18;;;;;;;21.20;10.77;;;;;;;-0.25;100.00;102591.72;10168159;28;20042;-70
2021/12/21 18:06:15;;;;;;;24.92;11.40;;;;;;;-0.26;100.00;102600.81;10164334;28;20397;-68
2021/12/21 18:11:11;;;;;;;18.90;10.02;;;;;;;-0.34;100.00;102598.31;10172135;28;20077;-68
2021/12/21 18:16:08;;;;;;;27.42;10.95;;;;;;;-0.37;100.00;102592.47;10173010;28;20499;-68
2021/12/21 18:21:05;;;;;;;22.23;11.07;;;;;;;-0.44;100.00;102581.72;10170412;28;20120;-68
2021/12/21 18:26:01;;;;;;;26.48;11.38;;;;;;;-0.51;100.00;102578.13;10172722;28;20062;-69
2021/12/21 18:30:58;;;;;;;25.15;12.10;;;;;;;-0.52;100.00;102579.19;10182738;28;20104;-69
2021/12/21 18:35:55;;;;;;;27.05;12.43;;;;;;;-0.50;100.00;102569.06;10188461;28;20397;-68
2021/12/21 18:40:51;;;;;;;28.85;13.95;;;;;;;-0.60;100.00;102571.25;10186017;28;20067;-68
2021/12/21 18:45:48;;;;;;;26.60;12.65;;;;;;;-0.42;100.00;102563.50;10196156;28;20052;-68
2021/12/21 18:50:44;;;;;;;27.00;12.20;;;;;;;-0.52;100.00;102563.06;10175093;28;20558;-69
2021/12/21 18:55:41;;;;;;;24.33;11.77;;;;;;;-0.54;100.00;102575.84;10153434;28;20555;-68
2021/12/21 19:00:39;;;;;;;23.98;13.20;;;;;;;-0.61;100.00;102580.38;9958035;28;20506;-68
2021/12/21 19:05:43;;;;;;;26.33;12.10;;;;;;;-0.64;100.00;102571.66;10173894;28;20137;-68
2021/12/21 19:10:40;;;;;;;28.33;13.48;;;;;;;-0.65;100.00;102569.16;10195134;28;20119;-68
2021/12/21 19:15:37;;;;;;;27.00;13.13;;;;;;;-0.72;100.00;102585.28;10179634;28;20041;-68
2021/12/21 19:20:34;;;;;;;28.15;14.63;;;;;;;-0.77;100.00;102576.94;10185710;28;20124;-68
2021/12/21 19:25:32;;;;;;;30.48;15.50;;;;;;;-0.78;100.00;102585.22;10183802;28;20495;-68
2021/12/21 19:30:29;;;;;;;25.30;13.18;;;;;;;-0.81;100.00;102581.06;10188091;28;20473;-68
2021/12/21 19:35:25;;;;;;;28.50;12.57;;;;;;;-0.87;100.00;102589.91;10158228;28;20520;-68
2021/12/21 19:40:22;;;;;;;29.98;14.60;;;;;;;-0.86;100.00;102594.25;10171636;28;20079;-68
2021/12/21 19:45:18;;;;;;;27.52;14.23;;;;;;;-0.87;100.00;102595.28;10178945;28;20069;-68
2021/12/21 19:50:21;;;;;;;27.77;14.80;;;;;;;-0.91;100.00;102585.94;10187040;28;20076;-68
2021/12/21 19:55:20;;;;;;;28.77;16.08;;;;;;;-0.94;100.00;102591.72;10181630;28;20112;-68
2021/12/21 20:00:19;;;;;;;32.20;16.67;;;;;;;-0.98;100.00;102595.81;10179035;28;20074;-68
2021/12/21 20:05:16;;;;;;;33.35;18.08;;;;;;;-1.04;100.00;102591.19;10192597;28;20495;-68
2021/12/21 20:10:24;;;;;;;35.40;16.83;;;;;;;-1.09;100.00;102598.00;10177648;28;20085;-68
2021/12/21 20:15:20;;;;;;;29.25;16.65;;;;;;;-1.12;100.00;102592.19;10179940;28;20133;-68
2021/12/21 20:20:17;;;;;;;35.53;18.05;;;;;;;-1.15;100.00;102596.09;10180867;28;20064;-68
2021/12/21 20:25:14;;;;;;;35.58;18.67;;;;;;;-1.19;100.00;102596.66;10172179;28;20065;-68
2021/12/21 20:30:12;;;;;;;34.22;19.40;;;;;;;-1.20;100.00;102592.34;10185444;28;20104;-68
2021/12/21 20:35:10;;;;;;;33.30;18.58;;;;;;;-1.23;100.00;102598.94;10166613;28;20092;-68
2021/12/21 20:40:10;;;;;;;28.00;16.95;;;;;;;-1.24;100.00;102605.31;9951212;28;20056;-69
2021/12/21 20:45:08;;;;;;;31.00;17.05;;;;;;;-1.29;100.00;102618.47;10175681;28;20080;-67
2021/12/21 20:50:08;;;;;;;34.50;18.55;;;;;;;-1.28;100.00;102617.44;10175957;28;20058;-68
2021/12/21 20:55:05;;;;;;;28.92;16.67;;;;;;;-1.32;100.00;102616.19;10183164;28;20081;-68
2021/12/21 21:00:03;;;;;;;29.92;17.00;;;;;;;-1.30;100.00;102627.53;10165329;28;20101;-68
2021/12/21 21:05:00;;;;;;;32.28;16.98;;;;;;;-1.17;100.00;102627.66;10191618;28;20444;-68
2021/12/21 21:09:56;;;;;;;30.27;17.75;;;;;;;-0.83;100.00;102620.72;10195759;28;20072;-63
2021/12/21 21:14:53;;;;;;;33.33;17.60;;;;;;;-0.60;100.00;102619.63;10174692;28;20732;-67
2021/12/21 21:19:49;;;;;;;29.25;17.13;;;;;;;-0.57;100.00;102613.88;10181517;28;20053;-68
2021/12/21 21:24:46;;;;;;;28.73;18.85;;;;;;;-0.57;100.00;102603.13;10175847;28;20088;-69
2021/12/21 21:29:42;;;;;;;28.85;16.50;;;;;;;-0.54;100.00;102608.09;10171470;28;20508;-68
2021/12/21 21:34:39;;;;;;;29.13;16.58;;;;;;;-0.53;100.00;102615.97;10180831;28;20165;-68
2021/12/21 21:39:36;;;;;;;30.42;17.65;;;;;;;-0.55;100.00;102612.66;10176509;28;20048;-68
2021/12/21 21:44:33;;;;;;;28.40;16.83;;;;;;;-0.55;100.00;102618.03;10190032;28;20499;-68
2021/12/21 21:49:30;;;;;;;28.08;15.90;;;;;;;-0.50;100.00;102631.69;9975815;28;20564;-68
2021/12/21 21:54:27;;;;;;;28.33;17.92;;;;;;;-0.43;100.00;102626.38;10152260;28;20141;-67
2021/12/21 21:59:23;;;;;;;30.60;17.92;;;;;;;-0.40;100.00;102620.59;9964464;28;20547;-67
2021/12/21 22:04:20;;;;;;;30.65;17.17;;;;;;;-0.41;100.00;102621.63;9944611;28;20103;-67
2021/12/21 22:09:17;;;;;;;29.15;16.92;;;;;;;-0.45;100.00;102617.66;10145530;28;20046;-66
2021/12/21 22:14:14;;;;;;;27.63;16.77;;;;;;;-0.50;100.00;102622.81;10189480;28;20038;-68
2021/12/21 22:19:11;;;;;;;29.88;15.85;;;;;;;-0.53;100.00;102626.72;10190810;28;20543;-70
2021/12/21 22:24:07;;;;;;;29.83;17.23;;;;;;;-0.62;100.00;102632.47;10179728;28;20049;-69
2021/12/21 22:29:05;;;;;;;29.13;16.05;;;;;;;-0.56;100.00;102628.97;10187225;28;20133;-69
2021/12/21 22:34:03;;;;;;;26.83;15.32;;;;;;;-0.59;100.00;102632.06;10186939;28;20070;-68
2021/12/21 22:39:00;;;;;;;24.92;14.95;;;;;;;-0.79;100.00;102627.38;10176370;28;20046;-68
2021/12/21 22:43:58;;;;;;;28.50;15.73;;;;;;;-0.92;100.00;102633.47;10192122;28;20077;-69
2021/12/21 22:48:54;;;;;;;26.00;15.32;;;;;;;-0.93;100.00;102625.59;10186753;28;20046;-68
2021/12/21 22:53:51;;;;;;;25.08;15.55;;;;;;;-0.97;100.00;102621.66;10185199;28;20043;-70
2021/12/21 22:58:47;;;;;;;28.80;16.63;;;;;;;-1.15;100.00;102625.63;10006855;28;20189;-70
2021/12/21 23:03:43;;;;;;;26.40;15.43;;;;;;;-1.14;100.00;102619.25;9951738;28;20076;-70
2021/12/21 23:08:41;;;;;;;26.65;14.82;;;;;;;-1.15;100.00;102622.09;9938534;28;20457;-67
2021/12/21 23:13:45;;;;;;;28.95;15.45;;;;;;;-1.31;100.00;102623.19;10121478;28;20557;-70
2021/12/21 23:18:43;;;;;;;25.63;15.27;;;;;;;-1.38;100.00;102628.50;10177161;28;20091;-69
2021/12/21 23:23:40;;;;;;;27.05;14.48;;;;;;;-1.46;100.00;102635.81;10001286;28;20778;-69
2021/12/21 23:28:36;;;;;;;25.38;15.20;;;;;;;-1.54;100.00;102629.56;9946895;28;20045;-69